sensor_id;sensor_type;location;lat;lon;timestamp;temperature;humidity
21627;DHT22;10975;47.872;12.972;2022-11-20T00:01:30;6.40;99.90
21627;DHT22;10975;47.872;12.972;2022-11-20T00:03:57;6.40;99.90
21627;DHT22;10975;47.872;12.972;2022-11-20T00:06:25;6.40;99.90
21627;DHT22;10975;47.872;12.972;2022-11-20T00:08:53;6.40;99.90
21627;DHT22;10975;47.872;12.972;2022-11-20T00:11:25;6.30;99.90
21627;DHT22;10975;47.872;12.972;2022-11-20T00:13:53;6.30;99.90
21627;DHT22;10975;47.872;12.972;2022-11-20T00:16:21;6.30;99.90
21627;DHT22;10975;47.872;12.972;2022-11-20T00:18:50;6.30;99.90
21627;DHT22;10975;47.872;12.972;2022-11-20T00:23:44;6.30;99.90
21627;DHT22;10975;47.872;12.972;2022-11-20T00:26:14;6.30;99.90
21627;DHT22;10975;47.872;12.972;2022-11-20T00:28:42;6.30;99.90
21627;DHT22;10975;47.872;12.972;2022-11-20T00:31:12;6.30;99.90
21627;DHT22;10975;47.872;12.972;2022-11-20T00:36:13;6.30;99.90
21627;DHT22;10975;47.872;12.972;2022-11-20T00:38:51;6.30;99.90
21627;DHT22;10975;47.872;12.972;2022-11-20T00:41:17;6.30;99.90
21627;DHT22;10975;47.872;12.972;2022-11-20T00:43:44;6.30;99.90
21627;DHT22;10975;47.872;12.972;2022-11-20T00:46:14;6.30;99.90
21627;DHT22;10975;47.872;12.972;2022-11-20T00:48:42;6.40;99.90
21627;DHT22;10975;47.872;12.972;2022-11-20T00:51:09;6.40;99.90
21627;DHT22;10975;47.872;12.972;2022-11-20T00:53:51;6.40;99.90
21627;DHT22;10975;47.872;12.972;2022-11-20T00:56:27;6.40;99.90
21627;DHT22;10975;47.872;12.972;2022-11-20T00:58:53;6.40;99.90
21627;DHT22;10975;47.872;12.972;2022-11-20T01:01:21;6.40;99.90
21627;DHT22;10975;47.872;12.972;2022-11-20T01:03:51;6.40;99.90
21627;DHT22;10975;47.872;12.972;2022-11-20T01:08:45;6.30;99.90
21627;DHT22;10975;47.872;12.972;2022-11-20T01:11:31;6.40;99.90
21627;DHT22;10975;47.872;12.972;2022-11-20T01:14:03;6.40;99.90
21627;DHT22;10975;47.872;12.972;2022-11-20T01:16:33;6.30;99.90
21627;DHT22;10975;47.872;12.972;2022-11-20T01:19:00;6.30;99.90
21627;DHT22;10975;47.872;12.972;2022-11-20T01:21:29;6.30;99.90
21627;DHT22;10975;47.872;12.972;2022-11-20T01:26:28;6.40;99.90
21627;DHT22;10975;47.872;12.972;2022-11-20T01:28:55;6.30;99.90
21627;DHT22;10975;47.872;12.972;2022-11-20T01:31:27;6.30;99.90
21627;DHT22;10975;47.872;12.972;2022-11-20T01:33:55;6.30;99.90
21627;DHT22;10975;47.872;12.972;2022-11-20T01:36:23;6.30;99.90
21627;DHT22;10975;47.872;12.972;2022-11-20T01:38:51;6.30;99.90
21627;DHT22;10975;47.872;12.972;2022-11-20T01:41:18;6.30;99.90
21627;DHT22;10975;47.872;12.972;2022-11-20T01:44:04;6.30;99.90
21627;DHT22;10975;47.872;12.972;2022-11-20T01:46:35;6.30;99.90
21627;DHT22;10975;47.872;12.972;2022-11-20T01:51:48;6.40;99.90
21627;DHT22;10975;47.872;12.972;2022-11-20T01:54:22;6.30;99.90
21627;DHT22;10975;47.872;12.972;2022-11-20T01:56:51;6.30;99.90
21627;DHT22;10975;47.872;12.972;2022-11-20T01:59:19;6.30;99.90
21627;DHT22;10975;47.872;12.972;2022-11-20T02:01:46;6.30;99.90
21627;DHT22;10975;47.872;12.972;2022-11-20T02:04:13;6.30;99.90
21627;DHT22;10975;47.872;12.972;2022-11-20T02:07:00;6.30;99.90
21627;DHT22;10975;47.872;12.972;2022-11-20T02:09:27;6.30;99.90
21627;DHT22;10975;47.872;12.972;2022-11-20T02:11:54;6.30;99.90
21627;DHT22;10975;47.872;12.972;2022-11-20T02:14:21;6.30;99.90
21627;DHT22;10975;47.872;12.972;2022-11-20T02:16:48;6.30;99.90
21627;DHT22;10975;47.872;12.972;2022-11-20T02:19:23;6.30;99.90
21627;DHT22;10975;47.872;12.972;2022-11-20T02:21:55;6.30;99.90
21627;DHT22;10975;47.872;12.972;2022-11-20T02:24:22;6.30;99.90
21627;DHT22;10975;47.872;12.972;2022-11-20T02:27:00;6.30;99.90
21627;DHT22;10975;47.872;12.972;2022-11-20T02:31:58;6.30;99.90
21627;DHT22;10975;47.872;12.972;2022-11-20T02:34:25;6.40;99.90
21627;DHT22;10975;47.872;12.972;2022-11-20T02:36:52;6.40;99.90
21627;DHT22;10975;47.872;12.972;2022-11-20T02:39:19;6.40;99.90
21627;DHT22;10975;47.872;12.972;2022-11-20T02:41:47;6.40;99.90
21627;DHT22;10975;47.872;12.972;2022-11-20T02:44:14;6.40;99.90
21627;DHT22;10975;47.872;12.972;2022-11-20T02:46:40;6.40;99.90
21627;DHT22;10975;47.872;12.972;2022-11-20T02:49:11;6.40;99.90
21627;DHT22;10975;47.872;12.972;2022-11-20T02:51:37;6.40;99.90
21627;DHT22;10975;47.872;12.972;2022-11-20T02:54:04;6.40;99.90
21627;DHT22;10975;47.872;12.972;2022-11-20T02:56:31;6.40;99.90
21627;DHT22;10975;47.872;12.972;2022-11-20T02:58:58;6.40;99.90
21627;DHT22;10975;47.872;12.972;2022-11-20T03:01:25;6.40;99.90
21627;DHT22;10975;47.872;12.972;2022-11-20T03:03:55;6.40;99.90
21627;DHT22;10975;47.872;12.972;2022-11-20T03:06:22;6.40;99.90
21627;DHT22;10975;47.872;12.972;2022-11-20T03:08:49;6.50;99.90
21627;DHT22;10975;47.872;12.972;2022-11-20T03:11:16;6.50;99.90
21627;DHT22;10975;47.872;12.972;2022-11-20T03:13:43;6.50;99.90
21627;DHT22;10975;47.872;12.972;2022-11-20T03:16:14;6.50;99.90
21627;DHT22;10975;47.872;12.972;2022-11-20T03:18:51;6.50;99.90
21627;DHT22;10975;47.872;12.972;2022-11-20T03:21:18;6.50;99.90
21627;DHT22;10975;47.872;12.972;2022-11-20T03:23:45;6.50;99.90
21627;DHT22;10975;47.872;12.972;2022-11-20T03:26:18;6.50;99.90
21627;DHT22;10975;47.872;12.972;2022-11-20T03:28:50;6.50;99.90
21627;DHT22;10975;47.872;12.972;2022-11-20T03:31:18;6.50;99.90
21627;DHT22;10975;47.872;12.972;2022-11-20T03:33:45;6.40;99.90
21627;DHT22;10975;47.872;12.972;2022-11-20T03:36:12;6.50;99.90
21627;DHT22;10975;47.872;12.972;2022-11-20T03:38:42;6.50;99.90
21627;DHT22;10975;47.872;12.972;2022-11-20T03:41:11;6.50;99.90
21627;DHT22;10975;47.872;12.972;2022-11-20T03:43:37;6.50;99.90
21627;DHT22;10975;47.872;12.972;2022-11-20T03:46:04;6.50;99.90
21627;DHT22;10975;47.872;12.972;2022-11-20T03:48:31;6.50;99.90
21627;DHT22;10975;47.872;12.972;2022-11-20T03:51:15;6.50;99.90
21627;DHT22;10975;47.872;12.972;2022-11-20T03:53:42;6.50;99.90
21627;DHT22;10975;47.872;12.972;2022-11-20T03:56:17;6.50;99.90
21627;DHT22;10975;47.872;12.972;2022-11-20T03:58:44;6.40;99.90
21627;DHT22;10975;47.872;12.972;2022-11-20T04:01:19;6.40;99.90
21627;DHT22;10975;47.872;12.972;2022-11-20T04:03:47;6.50;99.90
21627;DHT22;10975;47.872;12.972;2022-11-20T04:06:15;6.60;99.90
21627;DHT22;10975;47.872;12.972;2022-11-20T04:08:42;6.60;99.90
21627;DHT22;10975;47.872;12.972;2022-11-20T04:11:09;6.60;99.90
21627;DHT22;10975;47.872;12.972;2022-11-20T04:13:36;6.60;99.90
21627;DHT22;10975;47.872;12.972;2022-11-20T04:16:04;6.60;99.90
21627;DHT22;10975;47.872;12.972;2022-11-20T04:18:31;6.60;99.90
21627;DHT22;10975;47.872;12.972;2022-11-20T04:20:58;6.60;99.90
21627;DHT22;10975;47.872;12.972;2022-11-20T04:23:26;6.50;99.90
21627;DHT22;10975;47.872;12.972;2022-11-20T04:25:54;6.50;99.90
21627;DHT22;10975;47.872;12.972;2022-11-20T04:28:21;6.50;99.90
21627;DHT22;10975;47.872;12.972;2022-11-20T04:30:48;6.60;99.90
21627;DHT22;10975;47.872;12.972;2022-11-20T04:33:14;6.60;99.90
21627;DHT22;10975;47.872;12.972;2022-11-20T04:35:41;6.60;99.90
21627;DHT22;10975;47.872;12.972;2022-11-20T04:38:07;6.60;99.90
21627;DHT22;10975;47.872;12.972;2022-11-20T04:40:34;6.60;99.90
21627;DHT22;10975;47.872;12.972;2022-11-20T04:43:01;6.50;99.90
21627;DHT22;10975;47.872;12.972;2022-11-20T04:45:27;6.50;99.90
21627;DHT22;10975;47.872;12.972;2022-11-20T04:47:54;6.50;99.90
21627;DHT22;10975;47.872;12.972;2022-11-20T04:50:22;6.50;99.90
21627;DHT22;10975;47.872;12.972;2022-11-20T04:52:48;6.50;99.90
21627;DHT22;10975;47.872;12.972;2022-11-20T04:55:15;6.50;99.90
21627;DHT22;10975;47.872;12.972;2022-11-20T04:57:41;6.40;99.90
21627;DHT22;10975;47.872;12.972;2022-11-20T05:00:08;6.50;99.90
21627;DHT22;10975;47.872;12.972;2022-11-20T05:02:35;6.40;99.90
21627;DHT22;10975;47.872;12.972;2022-11-20T05:05:02;6.40;99.90
21627;DHT22;10975;47.872;12.972;2022-11-20T05:07:29;6.40;99.90
21627;DHT22;10975;47.872;12.972;2022-11-20T05:09:56;6.40;99.90
21627;DHT22;10975;47.872;12.972;2022-11-20T05:12:22;6.40;99.90
21627;DHT22;10975;47.872;12.972;2022-11-20T05:14:49;6.30;99.90
21627;DHT22;10975;47.872;12.972;2022-11-20T05:17:16;6.30;99.90
21627;DHT22;10975;47.872;12.972;2022-11-20T05:19:43;6.30;99.90
21627;DHT22;10975;47.872;12.972;2022-11-20T05:22:09;6.30;99.90
21627;DHT22;10975;47.872;12.972;2022-11-20T05:24:36;6.30;99.90
21627;DHT22;10975;47.872;12.972;2022-11-20T05:27:03;6.30;99.90
21627;DHT22;10975;47.872;12.972;2022-11-20T05:29:31;6.30;99.90
21627;DHT22;10975;47.872;12.972;2022-11-20T05:31:59;6.20;99.90
21627;DHT22;10975;47.872;12.972;2022-11-20T05:34:25;6.20;99.90
21627;DHT22;10975;47.872;12.972;2022-11-20T05:36:52;6.20;99.90
21627;DHT22;10975;47.872;12.972;2022-11-20T05:39:19;6.10;99.90
21627;DHT22;10975;47.872;12.972;2022-11-20T05:41:46;6.10;99.90
21627;DHT22;10975;47.872;12.972;2022-11-20T05:44:20;6.10;99.90
21627;DHT22;10975;47.872;12.972;2022-11-20T05:46:46;6.20;99.90
21627;DHT22;10975;47.872;12.972;2022-11-20T05:49:13;6.10;99.90
21627;DHT22;10975;47.872;12.972;2022-11-20T05:51:40;6.10;99.90
21627;DHT22;10975;47.872;12.972;2022-11-20T05:54:06;6.10;99.90
21627;DHT22;10975;47.872;12.972;2022-11-20T05:56:33;6.10;99.90
21627;DHT22;10975;47.872;12.972;2022-11-20T05:59:00;6.10;99.90
21627;DHT22;10975;47.872;12.972;2022-11-20T06:01:26;6.10;99.90
21627;DHT22;10975;47.872;12.972;2022-11-20T06:03:53;6.10;99.90
21627;DHT22;10975;47.872;12.972;2022-11-20T06:06:20;6.00;99.90
21627;DHT22;10975;47.872;12.972;2022-11-20T06:08:47;6.00;99.90
21627;DHT22;10975;47.872;12.972;2022-11-20T06:11:16;6.00;99.90
21627;DHT22;10975;47.872;12.972;2022-11-20T06:13:42;6.00;99.90
21627;DHT22;10975;47.872;12.972;2022-11-20T06:16:10;6.10;99.90
21627;DHT22;10975;47.872;12.972;2022-11-20T06:18:36;6.20;99.90
21627;DHT22;10975;47.872;12.972;2022-11-20T06:21:05;6.20;99.90
21627;DHT22;10975;47.872;12.972;2022-11-20T06:23:32;6.20;99.90
21627;DHT22;10975;47.872;12.972;2022-11-20T06:26:03;6.20;99.90
21627;DHT22;10975;47.872;12.972;2022-11-20T06:28:30;6.20;99.90
21627;DHT22;10975;47.872;12.972;2022-11-20T06:30:57;6.10;99.90
21627;DHT22;10975;47.872;12.972;2022-11-20T06:33:24;6.20;99.90
21627;DHT22;10975;47.872;12.972;2022-11-20T06:35:51;6.20;99.90
21627;DHT22;10975;47.872;12.972;2022-11-20T06:38:25;6.20;99.90
21627;DHT22;10975;47.872;12.972;2022-11-20T06:40:52;6.20;99.90
21627;DHT22;10975;47.872;12.972;2022-11-20T06:43:19;6.20;99.90
21627;DHT22;10975;47.872;12.972;2022-11-20T06:45:46;6.20;99.90
21627;DHT22;10975;47.872;12.972;2022-11-20T06:48:12;6.20;99.90
21627;DHT22;10975;47.872;12.972;2022-11-20T06:50:39;6.20;99.90
21627;DHT22;10975;47.872;12.972;2022-11-20T06:53:06;6.20;99.90
21627;DHT22;10975;47.872;12.972;2022-11-20T06:55:32;6.20;99.90
21627;DHT22;10975;47.872;12.972;2022-11-20T06:57:59;6.20;99.90
21627;DHT22;10975;47.872;12.972;2022-11-20T07:00:26;6.20;99.90
21627;DHT22;10975;47.872;12.972;2022-11-20T07:02:55;6.20;99.90
21627;DHT22;10975;47.872;12.972;2022-11-20T07:05:24;6.20;99.90
21627;DHT22;10975;47.872;12.972;2022-11-20T07:07:58;6.30;99.90
21627;DHT22;10975;47.872;12.972;2022-11-20T07:10:25;6.30;99.90
21627;DHT22;10975;47.872;12.972;2022-11-20T07:12:52;6.30;99.90
21627;DHT22;10975;47.872;12.972;2022-11-20T07:15:20;6.30;99.90
21627;DHT22;10975;47.872;12.972;2022-11-20T07:17:47;6.30;99.90
21627;DHT22;10975;47.872;12.972;2022-11-20T07:20:14;6.30;99.90
21627;DHT22;10975;47.872;12.972;2022-11-20T07:22:42;6.30;99.90
21627;DHT22;10975;47.872;12.972;2022-11-20T07:25:23;6.30;99.90
21627;DHT22;10975;47.872;12.972;2022-11-20T07:27:50;6.30;99.90
21627;DHT22;10975;47.872;12.972;2022-11-20T07:30:18;6.30;99.90
21627;DHT22;10975;47.872;12.972;2022-11-20T07:32:51;6.30;99.90
21627;DHT22;10975;47.872;12.972;2022-11-20T07:35:19;6.30;99.90
21627;DHT22;10975;47.872;12.972;2022-11-20T07:37:45;6.40;99.90
21627;DHT22;10975;47.872;12.972;2022-11-20T07:40:13;6.40;99.90
21627;DHT22;10975;47.872;12.972;2022-11-20T07:42:50;6.50;99.90
21627;DHT22;10975;47.872;12.972;2022-11-20T07:45:17;6.50;99.90
21627;DHT22;10975;47.872;12.972;2022-11-20T07:47:44;6.60;99.90
21627;DHT22;10975;47.872;12.972;2022-11-20T07:50:11;6.60;99.90
21627;DHT22;10975;47.872;12.972;2022-11-20T07:52:38;6.60;99.90
21627;DHT22;10975;47.872;12.972;2022-11-20T07:55:05;6.70;99.90
21627;DHT22;10975;47.872;12.972;2022-11-20T07:57:31;6.70;99.90
21627;DHT22;10975;47.872;12.972;2022-11-20T07:59:58;6.80;99.90
21627;DHT22;10975;47.872;12.972;2022-11-20T08:02:25;6.80;99.90
21627;DHT22;10975;47.872;12.972;2022-11-20T08:04:52;6.90;99.90
21627;DHT22;10975;47.872;12.972;2022-11-20T08:07:18;6.90;99.90
21627;DHT22;10975;47.872;12.972;2022-11-20T08:09:45;6.90;99.90
21627;DHT22;10975;47.872;12.972;2022-11-20T08:12:18;7.00;99.90
21627;DHT22;10975;47.872;12.972;2022-11-20T08:15:04;7.00;99.90
21627;DHT22;10975;47.872;12.972;2022-11-20T08:17:38;7.10;99.90
21627;DHT22;10975;47.872;12.972;2022-11-20T08:20:05;7.10;99.90
21627;DHT22;10975;47.872;12.972;2022-11-20T08:22:32;7.10;99.90
21627;DHT22;10975;47.872;12.972;2022-11-20T08:24:58;7.10;99.90
21627;DHT22;10975;47.872;12.972;2022-11-20T08:27:25;7.20;99.90
21627;DHT22;10975;47.872;12.972;2022-11-20T08:29:52;7.30;99.90
21627;DHT22;10975;47.872;12.972;2022-11-20T08:32:19;7.30;99.90
21627;DHT22;10975;47.872;12.972;2022-11-20T08:34:45;7.40;99.90
21627;DHT22;10975;47.872;12.972;2022-11-20T08:37:12;7.40;99.90
21627;DHT22;10975;47.872;12.972;2022-11-20T08:39:39;7.40;99.90
21627;DHT22;10975;47.872;12.972;2022-11-20T08:42:06;7.50;99.90
21627;DHT22;10975;47.872;12.972;2022-11-20T08:44:33;7.60;99.90
21627;DHT22;10975;47.872;12.972;2022-11-20T08:47:00;7.60;99.90
21627;DHT22;10975;47.872;12.972;2022-11-20T08:49:27;7.60;99.90
21627;DHT22;10975;47.872;12.972;2022-11-20T08:51:54;7.70;99.90
21627;DHT22;10975;47.872;12.972;2022-11-20T08:54:22;7.80;99.90
21627;DHT22;10975;47.872;12.972;2022-11-20T08:56:49;7.70;99.90
21627;DHT22;10975;47.872;12.972;2022-11-20T08:59:15;7.80;99.90
21627;DHT22;10975;47.872;12.972;2022-11-20T09:02:02;7.80;99.90
21627;DHT22;10975;47.872;12.972;2022-11-20T09:04:32;7.90;99.90
21627;DHT22;10975;47.872;12.972;2022-11-20T09:06:59;7.90;99.90
21627;DHT22;10975;47.872;12.972;2022-11-20T09:09:26;7.80;99.90
21627;DHT22;10975;47.872;12.972;2022-11-20T09:12:07;7.80;99.90
21627;DHT22;10975;47.872;12.972;2022-11-20T09:14:33;7.80;99.90
21627;DHT22;10975;47.872;12.972;2022-11-20T09:17:00;7.80;99.90
21627;DHT22;10975;47.872;12.972;2022-11-20T09:19:27;7.80;99.90
21627;DHT22;10975;47.872;12.972;2022-11-20T09:22:02;7.70;99.90
21627;DHT22;10975;47.872;12.972;2022-11-20T09:24:28;7.70;99.90
21627;DHT22;10975;47.872;12.972;2022-11-20T09:26:55;7.70;99.90
21627;DHT22;10975;47.872;12.972;2022-11-20T09:29:22;7.70;99.90
21627;DHT22;10975;47.872;12.972;2022-11-20T09:31:49;7.80;99.90
21627;DHT22;10975;47.872;12.972;2022-11-20T09:34:15;7.90;99.90
21627;DHT22;10975;47.872;12.972;2022-11-20T09:36:42;7.90;99.90
21627;DHT22;10975;47.872;12.972;2022-11-20T09:39:09;7.90;99.90
21627;DHT22;10975;47.872;12.972;2022-11-20T09:44:26;7.90;99.90
21627;DHT22;10975;47.872;12.972;2022-11-20T09:47:07;7.90;99.90
21627;DHT22;10975;47.872;12.972;2022-11-20T09:52:15;8.00;99.90
21627;DHT22;10975;47.872;12.972;2022-11-20T09:54:47;8.00;99.90
21627;DHT22;10975;47.872;12.972;2022-11-20T09:57:16;8.10;99.90
21627;DHT22;10975;47.872;12.972;2022-11-20T09:59:46;8.10;99.90
21627;DHT22;10975;47.872;12.972;2022-11-20T10:04:52;8.30;99.90
21627;DHT22;10975;47.872;12.972;2022-11-20T10:07:34;8.50;99.90
21627;DHT22;10975;47.872;12.972;2022-11-20T10:10:03;8.70;99.90
21627;DHT22;10975;47.872;12.972;2022-11-20T10:25:19;9.40;99.90
21627;DHT22;10975;47.872;12.972;2022-11-20T10:30:26;9.50;99.90
21627;DHT22;10975;47.872;12.972;2022-11-20T10:35:40;9.60;99.90
21627;DHT22;10975;47.872;12.972;2022-11-20T10:38:23;9.60;99.90
21627;DHT22;10975;47.872;12.972;2022-11-20T10:40:53;9.70;99.90
21627;DHT22;10975;47.872;12.972;2022-11-20T10:43:41;9.80;99.90
21627;DHT22;10975;47.872;12.972;2022-11-20T10:46:15;9.70;99.90
21627;DHT22;10975;47.872;12.972;2022-11-20T10:48:57;9.80;99.90
21627;DHT22;10975;47.872;12.972;2022-11-20T10:52:40;9.70;99.90
21627;DHT22;10975;47.872;12.972;2022-11-20T10:57:22;9.90;99.90
21627;DHT22;10975;47.872;12.972;2022-11-20T11:00:09;10.00;99.90
21627;DHT22;10975;47.872;12.972;2022-11-20T11:02:49;10.10;99.90
21627;DHT22;10975;47.872;12.972;2022-11-20T11:07:42;10.20;99.90
21627;DHT22;10975;47.872;12.972;2022-11-20T11:10:16;10.30;99.90
21627;DHT22;10975;47.872;12.972;2022-11-20T11:12:45;10.40;99.90
21627;DHT22;10975;47.872;12.972;2022-11-20T11:15:36;10.30;99.90
21627;DHT22;10975;47.872;12.972;2022-11-20T11:18:03;10.40;99.90
21627;DHT22;10975;47.872;12.972;2022-11-20T11:20:30;10.30;99.90
21627;DHT22;10975;47.872;12.972;2022-11-20T11:22:58;10.30;99.90
21627;DHT22;10975;47.872;12.972;2022-11-20T11:25:29;10.20;99.90
21627;DHT22;10975;47.872;12.972;2022-11-20T11:27:57;10.10;99.90
21627;DHT22;10975;47.872;12.972;2022-11-20T11:30:25;10.10;99.90
21627;DHT22;10975;47.872;12.972;2022-11-20T11:35:53;10.00;99.90
21627;DHT22;10975;47.872;12.972;2022-11-20T11:38:21;10.20;99.90
21627;DHT22;10975;47.872;12.972;2022-11-20T11:40:49;10.30;99.90
21627;DHT22;10975;47.872;12.972;2022-11-20T11:43:20;10.20;99.90
21627;DHT22;10975;47.872;12.972;2022-11-20T11:46:40;10.10;99.90
21627;DHT22;10975;47.872;12.972;2022-11-20T11:51:40;10.20;99.90
21627;DHT22;10975;47.872;12.972;2022-11-20T11:54:12;10.00;99.90
21627;DHT22;10975;47.872;12.972;2022-11-20T11:56:43;10.00;99.90
21627;DHT22;10975;47.872;12.972;2022-11-20T11:59:12;10.10;99.90
21627;DHT22;10975;47.872;12.972;2022-11-20T12:01:47;10.10;99.90
21627;DHT22;10975;47.872;12.972;2022-11-20T12:06:52;10.30;99.90
21627;DHT22;10975;47.872;12.972;2022-11-20T12:09:20;10.40;99.90
21627;DHT22;10975;47.872;12.972;2022-11-20T12:11:55;10.40;99.90
21627;DHT22;10975;47.872;12.972;2022-11-20T12:14:31;10.70;99.90
21627;DHT22;10975;47.872;12.972;2022-11-20T12:17:00;10.60;99.90
21627;DHT22;10975;47.872;12.972;2022-11-20T12:19:29;10.60;99.90
21627;DHT22;10975;47.872;12.972;2022-11-20T12:21:59;10.50;99.90
21627;DHT22;10975;47.872;12.972;2022-11-20T12:30:14;10.60;99.90
21627;DHT22;10975;47.872;12.972;2022-11-20T12:42:55;10.60;99.90
21627;DHT22;10975;47.872;12.972;2022-11-20T12:46:01;10.60;99.90
21627;DHT22;10975;47.872;12.972;2022-11-20T12:48:33;10.40;99.90
21627;DHT22;10975;47.872;12.972;2022-11-20T12:56:24;10.30;99.90
21627;DHT22;10975;47.872;12.972;2022-11-20T12:59:19;10.30;99.90
21627;DHT22;10975;47.872;12.972;2022-11-20T13:01:52;10.60;99.90
21627;DHT22;10975;47.872;12.972;2022-11-20T13:07:02;10.10;99.90
21627;DHT22;10975;47.872;12.972;2022-11-20T13:09:30;9.90;99.90
21627;DHT22;10975;47.872;12.972;2022-11-20T13:12:08;10.00;99.90
21627;DHT22;10975;47.872;12.972;2022-11-20T13:14:46;9.90;99.90
21627;DHT22;10975;47.872;12.972;2022-11-20T13:19:50;9.80;99.90
21627;DHT22;10975;47.872;12.972;2022-11-20T13:22:27;9.80;99.90
21627;DHT22;10975;47.872;12.972;2022-11-20T13:24:54;9.80;99.90
21627;DHT22;10975;47.872;12.972;2022-11-20T13:27:21;9.70;99.90
21627;DHT22;10975;47.872;12.972;2022-11-20T13:30:00;9.70;99.90
21627;DHT22;10975;47.872;12.972;2022-11-20T13:32:28;9.70;99.90
21627;DHT22;10975;47.872;12.972;2022-11-20T13:35:03;9.60;99.90
21627;DHT22;10975;47.872;12.972;2022-11-20T13:37:31;9.60;99.90
21627;DHT22;10975;47.872;12.972;2022-11-20T13:40:32;9.60;99.90
21627;DHT22;10975;47.872;12.972;2022-11-20T13:45:34;9.50;99.90
21627;DHT22;10975;47.872;12.972;2022-11-20T13:48:03;9.50;99.90
21627;DHT22;10975;47.872;12.972;2022-11-20T13:50:39;9.50;99.90
21627;DHT22;10975;47.872;12.972;2022-11-20T13:53:18;9.50;99.90
21627;DHT22;10975;47.872;12.972;2022-11-20T13:56:05;9.50;99.90
21627;DHT22;10975;47.872;12.972;2022-11-20T13:58:44;9.60;99.90
21627;DHT22;10975;47.872;12.972;2022-11-20T14:01:15;9.60;99.90
21627;DHT22;10975;47.872;12.972;2022-11-20T14:03:42;9.60;99.90
21627;DHT22;10975;47.872;12.972;2022-11-20T14:06:30;9.60;99.90
21627;DHT22;10975;47.872;12.972;2022-11-20T14:08:58;9.50;99.90
21627;DHT22;10975;47.872;12.972;2022-11-20T14:11:26;9.50;99.90
21627;DHT22;10975;47.872;12.972;2022-11-20T14:14:00;9.40;99.90
21627;DHT22;10975;47.872;12.972;2022-11-20T14:16:29;9.40;99.90
21627;DHT22;10975;47.872;12.972;2022-11-20T14:18:56;9.50;99.90
21627;DHT22;10975;47.872;12.972;2022-11-20T14:21:28;9.50;99.90
21627;DHT22;10975;47.872;12.972;2022-11-20T14:24:09;9.40;99.90
21627;DHT22;10975;47.872;12.972;2022-11-20T14:26:37;9.40;99.90
21627;DHT22;10975;47.872;12.972;2022-11-20T14:29:04;9.40;99.90
21627;DHT22;10975;47.872;12.972;2022-11-20T14:31:31;9.40;99.90
21627;DHT22;10975;47.872;12.972;2022-11-20T14:33:58;9.30;99.90
21627;DHT22;10975;47.872;12.972;2022-11-20T14:36:26;9.30;99.90
21627;DHT22;10975;47.872;12.972;2022-11-20T14:38:55;9.30;99.90
21627;DHT22;10975;47.872;12.972;2022-11-20T14:41:23;9.30;99.90
21627;DHT22;10975;47.872;12.972;2022-11-20T14:43:52;9.30;99.90
21627;DHT22;10975;47.872;12.972;2022-11-20T14:46:19;9.40;99.90
21627;DHT22;10975;47.872;12.972;2022-11-20T14:48:48;9.40;99.90
21627;DHT22;10975;47.872;12.972;2022-11-20T14:51:34;9.40;99.90
21627;DHT22;10975;47.872;12.972;2022-11-20T14:56:36;9.20;99.90
21627;DHT22;10975;47.872;12.972;2022-11-20T14:59:03;9.30;99.90
21627;DHT22;10975;47.872;12.972;2022-11-20T15:01:30;9.30;99.90
21627;DHT22;10975;47.872;12.972;2022-11-20T15:04:08;9.30;99.90
21627;DHT22;10975;47.872;12.972;2022-11-20T15:06:36;9.20;99.90
21627;DHT22;10975;47.872;12.972;2022-11-20T15:09:03;9.10;99.90
21627;DHT22;10975;47.872;12.972;2022-11-20T15:11:32;9.10;99.90
21627;DHT22;10975;47.872;12.972;2022-11-20T15:14:02;9.10;99.90
21627;DHT22;10975;47.872;12.972;2022-11-20T15:16:29;9.00;99.90
21627;DHT22;10975;47.872;12.972;2022-11-20T15:18:56;9.10;99.90
21627;DHT22;10975;47.872;12.972;2022-11-20T15:21:23;9.10;99.90
21627;DHT22;10975;47.872;12.972;2022-11-20T15:23:50;9.20;99.90
21627;DHT22;10975;47.872;12.972;2022-11-20T15:26:24;9.20;99.90
21627;DHT22;10975;47.872;12.972;2022-11-20T15:29:06;8.80;99.90
21627;DHT22;10975;47.872;12.972;2022-11-20T15:31:34;8.60;99.90
21627;DHT22;10975;47.872;12.972;2022-11-20T15:34:01;8.70;99.90
21627;DHT22;10975;47.872;12.972;2022-11-20T15:36:28;8.50;99.90
21627;DHT22;10975;47.872;12.972;2022-11-20T15:38:55;8.30;99.90
21627;DHT22;10975;47.872;12.972;2022-11-20T15:41:22;8.20;99.90
21627;DHT22;10975;47.872;12.972;2022-11-20T15:43:48;8.00;99.90
21627;DHT22;10975;47.872;12.972;2022-11-20T15:46:16;8.10;99.90
21627;DHT22;10975;47.872;12.972;2022-11-20T15:48:47;8.00;99.90
21627;DHT22;10975;47.872;12.972;2022-11-20T15:51:21;8.00;99.90
21627;DHT22;10975;47.872;12.972;2022-11-20T15:53:57;7.80;99.90
21627;DHT22;10975;47.872;12.972;2022-11-20T15:56:24;7.80;99.90
21627;DHT22;10975;47.872;12.972;2022-11-20T15:58:50;7.90;99.90
21627;DHT22;10975;47.872;12.972;2022-11-20T16:01:18;7.70;99.90
21627;DHT22;10975;47.872;12.972;2022-11-20T16:03:45;7.70;99.90
21627;DHT22;10975;47.872;12.972;2022-11-20T16:06:12;7.70;99.90
21627;DHT22;10975;47.872;12.972;2022-11-20T16:08:39;7.60;99.90
21627;DHT22;10975;47.872;12.972;2022-11-20T16:11:13;7.50;99.90
21627;DHT22;10975;47.872;12.972;2022-11-20T16:13:40;7.50;99.90
21627;DHT22;10975;47.872;12.972;2022-11-20T16:16:27;7.50;99.90
21627;DHT22;10975;47.872;12.972;2022-11-20T16:18:56;7.50;99.90
21627;DHT22;10975;47.872;12.972;2022-11-20T16:21:24;7.50;99.90
21627;DHT22;10975;47.872;12.972;2022-11-20T16:24:01;7.40;99.90
21627;DHT22;10975;47.872;12.972;2022-11-20T16:26:28;7.50;99.90
21627;DHT22;10975;47.872;12.972;2022-11-20T16:28:55;7.50;99.90
21627;DHT22;10975;47.872;12.972;2022-11-20T16:31:25;7.40;99.90
21627;DHT22;10975;47.872;12.972;2022-11-20T16:36:48;7.40;99.90
21627;DHT22;10975;47.872;12.972;2022-11-20T16:41:49;7.40;99.90
21627;DHT22;10975;47.872;12.972;2022-11-20T16:44:45;7.30;99.90
21627;DHT22;10975;47.872;12.972;2022-11-20T16:47:12;7.30;99.90
21627;DHT22;10975;47.872;12.972;2022-11-20T16:49:38;7.30;99.90
21627;DHT22;10975;47.872;12.972;2022-11-20T16:52:05;7.30;99.90
21627;DHT22;10975;47.872;12.972;2022-11-20T16:54:46;7.30;99.90
21627;DHT22;10975;47.872;12.972;2022-11-20T16:57:12;7.30;99.90
21627;DHT22;10975;47.872;12.972;2022-11-20T16:59:41;7.30;99.90
21627;DHT22;10975;47.872;12.972;2022-11-20T17:02:08;7.30;99.90
21627;DHT22;10975;47.872;12.972;2022-11-20T17:04:36;7.30;99.90
21627;DHT22;10975;47.872;12.972;2022-11-20T17:07:04;7.30;99.90
21627;DHT22;10975;47.872;12.972;2022-11-20T17:09:33;7.20;99.90
21627;DHT22;10975;47.872;12.972;2022-11-20T17:12:00;7.20;99.90
21627;DHT22;10975;47.872;12.972;2022-11-20T17:14:27;7.20;99.90
21627;DHT22;10975;47.872;12.972;2022-11-20T17:16:53;7.20;99.90
21627;DHT22;10975;47.872;12.972;2022-11-20T17:19:20;7.20;99.90